Time;durP1;ratioP1;P1;durP2;ratioP2;P2;SDS_P1;SDS_P2;PMS_P1;PMS_P2;Temp;Humidity;BMP_temperature;BMP_pressure;BME280_temperature;BME280_humidity;BME280_pressure;Samples;Min_cycle;Max_cycle;Signal;HPM_P1;HPM_P2
2022/10/30 00:01:09;;;;;;;77.80;31.27;;;;;;;15.49;60.03;100472.00;4472250;31;20125;-93
2022/10/30 00:03:34;;;;;;;72.22;32.58;;;;;;;15.56;60.03;100473.47;4472170;32;20136;-94
2022/10/30 00:06:02;;;;;;;77.15;33.15;;;;;;;15.60;60.03;100471.59;4458246;32;29083;-94
2022/10/30 00:08:27;;;;;;;89.55;34.45;;;;;;;15.63;60.04;100474.13;4472309;31;20174;-94
2022/10/30 00:10:53;;;;;;;74.55;31.67;;;;;;;15.68;60.04;100473.94;4472291;31;20131;-94
2022/10/30 00:13:19;;;;;;;74.28;28.67;;;;;;;15.53;60.02;100475.38;4472107;32;20109;-94
2022/10/30 00:15:51;;;;;;;76.70;29.48;;;;;;;15.64;60.03;100487.19;4459583;32;20119;-93
2022/10/30 00:18:17;;;;;;;84.47;35.55;;;;;;;15.64;60.04;100475.81;4474055;32;20817;-94
2022/10/30 00:20:42;;;;;;;90.68;36.10;;;;;;;15.54;60.02;100470.06;4474235;31;20109;-93
2022/10/30 00:23:08;;;;;;;110.88;45.03;;;;;;;15.70;60.03;100466.84;4474113;32;20143;-93
2022/10/30 00:25:34;;;;;;;86.47;34.03;;;;;;;15.59;60.03;100468.13;4473755;32;20134;-94
2022/10/30 00:28:00;;;;;;;73.68;30.23;;;;;;;15.58;60.03;100471.66;4473998;31;20177;-93
2022/10/30 00:30:25;;;;;;;78.45;31.75;;;;;;;15.52;60.02;100471.03;4474076;32;20461;-94
2022/10/30 00:32:51;;;;;;;81.72;31.52;;;;;;;15.56;60.03;100469.97;4474006;32;20123;-93
2022/10/30 00:35:16;;;;;;;110.12;49.30;;;;;;;15.55;60.02;100456.00;4473774;32;20151;-94
2022/10/30 00:37:42;;;;;;;76.60;31.95;;;;;;;15.45;60.02;100461.72;4473650;32;20441;-94
2022/10/30 00:40:12;;;;;;;65.37;27.52;;;;;;;15.31;60.01;100451.75;4481210;32;20136;-95
2022/10/30 00:42:38;;;;;;;60.35;26.90;;;;;;;15.38;60.02;100455.88;4476051;31;20103;-94
2022/10/30 00:45:03;;;;;;;65.22;28.02;;;;;;;15.67;60.03;100448.59;4473819;32;20124;-93
2022/10/30 00:47:36;;;;;;;82.50;35.13;;;;;;;15.59;60.03;100441.88;4473858;32;20104;-93
2022/10/30 00:50:26;;;;;;;62.75;29.67;;;;;;;15.54;60.02;100451.69;4486971;32;20080;-94
2022/10/30 00:52:55;;;;;;;69.07;27.42;;;;;;;15.24;60.01;100445.06;4475684;32;20465;-94
2022/10/30 00:55:57;;;;;;;64.37;28.02;;;;;;;15.46;60.02;100443.28;4487084;31;20437;-94
2022/10/30 00:58:26;;;;;;;72.50;28.17;;;;;;;15.54;60.03;100449.06;4438981;32;20172;-94
2022/10/30 01:00:52;;;;;;;65.80;27.02;;;;;;;15.28;60.01;100451.88;4465452;32;20120;-94
2022/10/30 01:03:18;;;;;;;69.20;29.87;;;;;;;15.45;60.02;100444.19;4473833;32;20926;-93
2022/10/30 01:05:44;;;;;;;66.97;27.35;;;;;;;15.44;60.02;100447.75;4473652;32;20104;-94
2022/10/30 01:08:09;;;;;;;66.00;28.55;;;;;;;15.32;60.01;100443.84;4473628;32;20108;-94
2022/10/30 01:10:35;;;;;;;61.30;24.80;;;;;;;15.51;60.02;100443.94;4473123;32;25646;-94
2022/10/30 01:13:00;;;;;;;63.97;26.40;;;;;;;15.16;60.00;100437.50;4473457;32;20170;-94
2022/10/30 01:15:32;;;;;;;66.78;27.37;;;;;;;15.23;60.01;100438.13;4473830;32;20113;-94
2022/10/30 01:18:17;;;;;;;59.80;24.17;;;;;;;15.23;60.01;100441.59;4474050;32;20122;-93
2022/10/30 01:21:06;;;;;;;62.17;24.23;;;;;;;15.22;60.01;100423.28;4486733;31;20150;-94
2022/10/30 01:24:09;;;;;;;61.10;24.50;;;;;;;15.26;60.01;100427.50;4486968;31;20087;-94
2022/10/30 01:26:45;;;;;;;61.65;25.40;;;;;;;15.30;60.01;100421.22;4486621;32;20097;-93
2022/10/30 01:29:13;;;;;;;57.92;24.73;;;;;;;15.50;60.03;100423.87;4486741;31;20122;-93
2022/10/30 01:32:03;;;;;;;58.00;23.35;;;;;;;15.33;60.02;100413.22;4486482;32;20130;-94
2022/10/30 01:34:47;;;;;;;;;;;;;;;15.26;60.01;100417.00;4474294;32;20060;-94
2022/10/30 01:37:24;;;;;;;50.72;21.92;;;;;;;15.45;60.02;100401.38;4487027;32;19962;-93
2022/10/30 01:39:49;;;;;;;55.53;24.37;;;;;;;15.36;60.02;100402.59;4474054;32;20108;-93
2022/10/30 01:42:47;;;;;;;51.25;22.65;;;;;;;15.26;60.01;100401.28;4460300;32;20476;-92
2022/10/30 01:45:34;;;;;;;50.00;21.98;;;;;;;15.53;60.02;100396.66;4486613;31;20103;-94
2022/10/30 01:48:05;;;;;;;55.88;21.90;;;;;;;15.20;60.01;100402.38;4486201;32;20077;-95
2022/10/30 01:50:42;;;;;;;57.58;22.02;;;;;;;15.34;60.02;100402.66;4486580;32;20131;-93
2022/10/30 01:53:36;;;;;;;55.50;21.60;;;;;;;15.29;60.01;100411.62;4474098;32;20727;-94
2022/10/30 01:56:23;;;;;;;53.97;21.60;;;;;;;15.34;60.02;100410.53;4486370;31;20123;-93
2022/10/30 01:59:03;;;;;;;54.20;22.10;;;;;;;15.39;60.01;100423.47;4486660;32;20100;-94
2022/10/30 02:01:30;;;;;;;60.17;23.92;;;;;;;15.25;60.02;100418.78;4476212;32;20107;-94
2022/10/30 02:03:55;;;;;;;64.32;24.30;;;;;;;15.23;60.01;100406.66;4482601;31;20449;-94
2022/10/30 02:06:20;;;;;;;53.30;22.37;;;;;;;15.21;60.01;100409.34;4473803;32;24833;-94
2022/10/30 02:08:46;;;;;;;49.67;20.95;;;;;;;15.17;60.00;100410.37;4473152;32;20148;-94
2022/10/30 02:11:11;;;;;;;46.97;21.33;;;;;;;15.17;60.00;100422.63;4473447;32;20156;-93
2022/10/30 02:13:37;;;;;;;47.22;20.35;;;;;;;15.33;60.02;100413.22;4473051;32;20127;-94
2022/10/30 02:16:02;;;;;;;49.65;20.08;;;;;;;15.41;60.02;100415.53;4472713;32;24052;-95
2022/10/30 02:18:28;;;;;;;51.13;20.98;;;;;;;15.26;60.01;100417.00;4473201;32;20118;-94
2022/10/30 02:20:54;;;;;;;57.72;21.42;;;;;;;15.23;60.01;100422.38;4473622;31;20105;-93
2022/10/30 02:23:21;;;;;;;48.50;20.92;;;;;;;15.24;60.01;100418.84;4473606;31;20522;-94
2022/10/30 02:25:46;;;;;;;51.20;20.65;;;;;;;15.36;60.02;100411.31;4473520;31;20101;-92
2022/10/30 02:28:12;;;;;;;44.30;19.52;;;;;;;15.22;60.01;100413.66;4473048;32;20386;-93
2022/10/30 02:30:37;;;;;;;46.10;19.73;;;;;;;15.35;60.02;100419.25;4473299;32;20159;-94
2022/10/30 02:33:02;;;;;;;48.10;20.35;;;;;;;15.26;60.01;100415.25;4472945;32;20167;-93
2022/10/30 02:35:28;;;;;;;45.38;18.58;;;;;;;15.20;60.01;100419.87;4472649;32;20240;-93
2022/10/30 02:37:54;;;;;;;48.58;18.98;;;;;;;15.22;60.01;100416.28;4473258;32;20111;-94
2022/10/30 02:40:19;;;;;;;48.92;20.23;;;;;;;15.17;60.00;100414.78;4471730;32;20104;-94
2022/10/30 02:42:53;;;;;;;58.97;20.73;;;;;;;15.10;60.01;100408.03;4472558;32;26670;-93
2022/10/30 02:45:19;;;;;;;67.37;19.12;;;;;;;15.09;60.00;100408.97;4486067;32;20149;-94
2022/10/30 02:47:44;;;;;;;49.85;20.40;;;;;;;15.18;60.01;100405.97;4472763;32;20132;-93
2022/10/30 02:50:10;;;;;;;56.15;20.05;;;;;;;15.13;60.00;100411.38;4472310;32;27940;-93
2022/10/30 02:52:35;;;;;;;50.88;20.10;;;;;;;15.13;60.00;100408.75;4472580;32;23882;-93
2022/10/30 02:55:00;;;;;;;58.55;19.12;;;;;;;15.20;60.01;100406.78;4472955;32;20120;-94
2022/10/30 02:57:26;;;;;;;42.13;18.95;;;;;;;15.22;60.01;100400.53;4472679;32;20093;-92
2022/10/30 02:59:51;;;;;;;44.53;19.30;;;;;;;15.00;59.99;100411.03;4472975;32;20127;-93
2022/10/30 03:02:17;;;;;;;50.33;19.20;;;;;;;15.01;59.99;100404.03;4472992;32;20112;-93
2022/10/30 03:04:42;;;;;;;47.85;19.80;;;;;;;15.15;60.00;100404.34;4472489;32;20488;-93
2022/10/30 03:07:07;;;;;;;41.10;18.10;;;;;;;15.11;60.01;100407.97;4472167;32;23891;-93
2022/10/30 03:09:33;;;;;;;39.40;19.67;;;;;;;15.00;60.00;100410.19;4472802;32;20155;-94
2022/10/30 03:11:58;;;;;;;47.08;19.37;;;;;;;15.00;60.00;100418.06;4485471;32;21021;-94
2022/10/30 03:14:23;;;;;;;44.28;19.92;;;;;;;15.11;60.01;100409.75;4472093;32;29149;-94
2022/10/30 03:16:51;;;;;;;45.10;18.12;;;;;;;15.12;60.01;100403.59;4472938;32;20108;-92
2022/10/30 03:19:17;;;;;;;37.78;16.85;;;;;;;15.22;60.01;100408.41;4473150;31;20753;-93
2022/10/30 03:21:43;;;;;;;56.58;19.60;;;;;;;14.99;60.00;100409.34;4472867;31;20129;-94
2022/10/30 03:24:08;;;;;;;52.45;19.50;;;;;;;15.22;60.01;100418.06;4485871;32;20179;-94
2022/10/30 03:26:34;;;;;;;43.13;19.58;;;;;;;15.32;60.01;100416.75;4480677;32;22338;-94
2022/10/30 03:28:59;;;;;;;40.30;18.23;;;;;;;15.23;60.01;100406.66;4473611;32;20236;-92
2022/10/30 03:31:24;;;;;;;44.65;18.40;;;;;;;14.99;60.00;100404.09;4472492;32;20139;-94
2022/10/30 03:33:50;;;;;;;46.50;18.02;;;;;;;14.95;60.00;100402.50;4472300;32;20465;-93
2022/10/30 03:36:15;;;;;;;39.60;18.25;;;;;;;14.96;60.00;100403.37;4471683;32;27241;-94
2022/10/30 03:38:41;;;;;;;39.85;16.95;;;;;;;14.89;60.00;100405.34;4472509;32;20148;-94
2022/10/30 03:41:06;;;;;;;41.60;17.52;;;;;;;14.84;59.99;100399.44;4472415;31;20184;-94
2022/10/30 03:43:32;;;;;;;37.83;16.70;;;;;;;14.97;60.00;100405.91;4471756;32;20160;-94
2022/10/30 03:45:57;;;;;;;39.03;18.05;;;;;;;15.15;60.00;100404.34;4471821;32;21930;-93
2022/10/30 03:48:25;;;;;;;36.75;15.73;;;;;;;15.04;60.00;100414.38;4472034;32;20128;-94
2022/10/30 03:50:57;;;;;;;38.50;17.10;;;;;;;14.84;59.99;100411.69;4472525;32;20137;-93
2022/10/30 03:53:25;;;;;;;36.58;16.90;;;;;;;14.74;59.99;100400.72;4473960;32;20096;-94
2022/10/30 03:55:50;;;;;;;39.03;16.73;;;;;;;14.72;59.99;100405.19;4474659;32;20085;-93
2022/10/30 03:58:16;;;;;;;34.05;16.37;;;;;;;14.92;59.99;100394.78;4474277;32;20358;-94
2022/10/30 04:00:41;;;;;;;38.38;17.10;;;;;;;14.99;60.00;100398.84;4487445;32;20120;-94
2022/10/30 04:03:07;;;;;;;34.88;17.02;;;;;;;15.19;60.01;100403.31;4473745;32;22820;-95
2022/10/30 04:05:32;;;;;;;35.05;17.40;;;;;;;15.14;60.00;100397.41;4474145;32;20110;-94
2022/10/30 04:07:59;;;;;;;33.03;15.65;;;;;;;15.08;60.00;100399.37;4473322;32;29954;-93
2022/10/30 04:10:25;;;;;;;28.77;14.52;;;;;;;15.21;60.01;100390.97;4474503;32;20099;-94
2022/10/30 04:12:51;;;;;;;31.50;14.55;;;;;;;15.28;60.01;100388.94;4474006;32;20358;-94
2022/10/30 04:15:17;;;;;;;29.65;14.63;;;;;;;15.19;60.01;100394.56;4474479;31;20057;-94
2022/10/30 04:17:49;;;;;;;33.55;14.87;;;;;;;15.13;60.00;100390.41;4473448;32;25029;-93
2022/10/30 04:20:15;;;;;;;25.98;15.02;;;;;;;15.15;60.00;100395.63;4474198;31;20168;-94
2022/10/30 04:22:40;;;;;;;29.58;13.48;;;;;;;14.98;60.00;100394.53;4474254;32;20386;-93
2022/10/30 04:25:06;;;;;;;32.45;14.70;;;;;;;14.95;60.00;100393.78;4473872;32;20135;-94
2022/10/30 04:27:38;;;;;;;28.12;14.48;;;;;;;14.82;59.99;100395.19;4473859;32;20108;-93
2022/10/30 04:30:04;;;;;;;29.25;14.13;;;;;;;14.98;60.00;100391.03;4474201;31;20161;-94
2022/10/30 04:32:30;;;;;;;27.83;14.23;;;;;;;14.92;59.99;100396.53;4474092;32;20119;-93
2022/10/30 04:34:55;;;;;;;26.27;13.23;;;;;;;14.95;60.00;100397.28;4473970;32;20116;-93
2022/10/30 04:37:21;;;;;;;26.20;13.15;;;;;;;14.92;59.99;100396.53;4473611;32;21877;-93
2022/10/30 04:39:47;;;;;;;23.48;13.40;;;;;;;14.86;59.99;100394.13;4473369;32;28248;-94
2022/10/30 04:42:12;;;;;;;23.05;13.25;;;;;;;14.85;59.99;100398.53;4473994;31;20088;-94
2022/10/30 04:44:38;;;;;;;23.17;12.65;;;;;;;14.88;59.99;100398.41;4473175;32;29486;-94
2022/10/30 04:47:03;;;;;;;23.12;12.85;;;;;;;14.99;60.00;100398.00;4473923;32;20116;-94
2022/10/30 04:49:29;;;;;;;22.40;12.75;;;;;;;14.80;59.99;100392.63;4481911;32;34589;-93
2022/10/30 04:51:54;;;;;;;26.27;13.55;;;;;;;14.69;59.98;100385.19;4474953;32;30107;-94
2022/10/30 04:54:20;;;;;;;24.00;13.05;;;;;;;14.67;59.98;100389.63;4473853;32;20161;-94
2022/10/30 04:56:46;;;;;;;26.37;12.70;;;;;;;14.61;59.98;100392.47;4474101;31;20072;-94
2022/10/30 04:59:11;;;;;;;24.85;13.90;;;;;;;14.54;59.97;100400.63;4473948;31;20146;-93
2022/10/30 05:01:37;;;;;;;24.73;13.25;;;;;;;14.76;59.98;100401.50;4473795;32;20142;-94
2022/10/30 05:04:02;;;;;;;22.67;13.13;;;;;;;14.73;59.99;100396.41;4472683;32;20131;-94
2022/10/30 05:06:31;;;;;;;24.08;12.43;;;;;;;14.78;59.98;100402.31;4473609;31;20202;-94
2022/10/30 05:08:57;;;;;;;25.40;13.45;;;;;;;14.80;59.99;100397.00;4474614;31;20129;-93
2022/10/30 05:11:22;;;;;;;22.80;12.35;;;;;;;14.71;59.98;100393.00;4474338;32;20498;-94
2022/10/30 05:13:48;;;;;;;25.83;14.18;;;;;;;14.93;59.99;100399.09;4473268;32;20129;-94
2022/10/30 05:16:13;;;;;;;19.25;11.25;;;;;;;14.99;60.00;100401.47;4473532;32;20132;-95
2022/10/30 05:18:39;;;;;;;17.17;10.93;;;;;;;14.76;59.98;100405.91;4473539;32;23912;-93
2022/10/30 05:21:04;;;;;;;22.02;12.05;;;;;;;14.60;59.98;100405.63;4473149;32;27431;-94
2022/10/30 05:23:29;;;;;;;21.77;11.98;;;;;;;14.73;59.99;100405.12;4473764;32;20127;-94
2022/10/30 05:25:55;;;;;;;20.45;11.80;;;;;;;14.88;59.99;100406.25;4473730;32;20109;-94
2022/10/30 05:28:20;;;;;;;20.95;10.88;;;;;;;14.82;59.99;100406.50;4473539;32;20112;-94
2022/10/30 05:30:50;;;;;;;20.08;10.35;;;;;;;14.79;59.98;100421.50;4460197;32;22805;-93
2022/10/30 05:33:16;;;;;;;24.35;12.23;;;;;;;14.56;59.98;100425.84;4474388;32;20437;-93
2022/10/30 05:35:42;;;;;;;25.85;12.15;;;;;;;14.77;59.98;100424.19;4473510;31;20151;-93
2022/10/30 05:38:08;;;;;;;23.85;12.18;;;;;;;14.67;59.98;100425.47;4486545;31;20104;-94
2022/10/30 05:40:34;;;;;;;24.02;11.80;;;;;;;14.42;59.97;100428.09;4460571;32;20061;-94
2022/10/30 05:42:59;;;;;;;23.42;11.68;;;;;;;14.72;59.99;100437.47;4473363;32;20167;-94
2022/10/30 05:45:25;;;;;;;22.17;12.15;;;;;;;14.72;59.99;100432.22;4473535;32;20140;-94
2022/10/30 05:47:57;;;;;;;22.92;12.10;;;;;;;14.60;59.98;100443.16;4473413;32;20103;-94
2022/10/30 05:50:23;;;;;;;22.17;11.60;;;;;;;14.68;59.98;100456.84;4473625;31;20115;-94
2022/10/30 05:52:49;;;;;;;20.48;11.18;;;;;;;14.65;59.98;100442.97;4473422;32;20096;-93
2022/10/30 05:55:15;;;;;;;24.98;12.00;;;;;;;14.55;59.97;100426.75;4473445;32;20203;-94
2022/10/30 05:57:40;;;;;;;22.13;12.63;;;;;;;14.80;59.99;100436.31;4472574;32;27225;-93
2022/10/30 06:00:06;;;;;;;23.65;12.30;;;;;;;14.71;59.99;100427.91;4472757;32;20839;-94
2022/10/30 06:02:32;;;;;;;23.38;11.35;;;;;;;14.55;59.98;100428.53;4473454;31;20709;-94
2022/10/30 06:04:57;;;;;;;33.65;12.23;;;;;;;14.58;59.98;100429.25;4473021;32;20104;-93
2022/10/30 06:07:22;;;;;;;24.35;12.15;;;;;;;14.88;59.99;100423.75;4472845;32;21850;-93
2022/10/30 06:09:48;;;;;;;24.75;11.77;;;;;;;14.76;59.98;100432.97;4486338;32;20390;-93
2022/10/30 06:12:13;;;;;;;21.35;11.02;;;;;;;15.05;60.01;100423.97;4481870;32;20139;-94
2022/10/30 06:14:39;;;;;;;26.75;11.88;;;;;;;14.98;60.00;100422.50;4474465;32;20134;-94
2022/10/30 06:17:04;;;;;;;24.12;11.90;;;;;;;14.85;59.99;100416.87;4472731;32;21981;-94
2022/10/30 06:19:29;;;;;;;21.87;11.73;;;;;;;14.82;59.99;100427.47;4486167;32;20409;-93
2022/10/30 06:21:55;;;;;;;27.48;14.30;;;;;;;14.75;59.98;100426.00;4460432;32;20492;-94
2022/10/30 06:24:20;;;;;;;23.52;12.40;;;;;;;14.73;59.99;100438.31;4473234;32;20131;-93
2022/10/30 06:26:46;;;;;;;30.35;12.50;;;;;;;14.91;59.99;100432.38;4472474;32;20406;-93
2022/10/30 06:29:11;;;;;;;26.85;13.05;;;;;;;15.03;60.00;100428.41;4472897;32;20170;-94
2022/10/30 06:31:36;;;;;;;24.10;12.37;;;;;;;14.91;59.99;100421.91;4473061;32;20104;-94
2022/10/30 06:34:02;;;;;;;22.40;11.95;;;;;;;15.19;60.00;100424.28;4472532;32;26486;-93
2022/10/30 06:36:27;;;;;;;24.73;12.43;;;;;;;15.39;60.01;100428.72;4473118;32;20160;-93
2022/10/30 06:38:53;;;;;;;25.40;12.50;;;;;;;15.30;60.01;100423.81;4472849;32;20515;-93
2022/10/30 06:41:18;;;;;;;26.30;13.65;;;;;;;15.20;60.01;100430.37;4472979;32;20107;-93
2022/10/30 06:43:43;;;;;;;27.65;14.07;;;;;;;15.19;60.01;100434.78;4472097;32;28354;-93
2022/10/30 06:46:09;;;;;;;23.77;11.50;;;;;;;15.29;60.01;100435.25;4472746;32;20112;-94
2022/10/30 06:48:34;;;;;;;23.90;12.35;;;;;;;15.30;60.01;100434.31;4472646;32;20135;-93
2022/10/30 06:51:01;;;;;;;26.62;12.90;;;;;;;15.43;60.02;100447.81;4472584;32;20614;-94
2022/10/30 06:53:27;;;;;;;21.20;11.38;;;;;;;15.48;60.03;100445.84;4473484;31;20230;-94
2022/10/30 06:55:56;;;;;;;26.15;11.80;;;;;;;15.65;60.03;100443.41;4473058;32;20148;-94
2022/10/30 06:58:22;;;;;;;24.05;11.80;;;;;;;15.50;60.03;100446.63;4473159;31;20119;-94
2022/10/30 07:00:48;;;;;;;26.83;13.30;;;;;;;15.51;60.02;100449.19;4472897;32;20223;-93
2022/10/30 07:03:13;;;;;;;21.73;11.98;;;;;;;15.34;60.02;100456.88;4472917;32;20357;-93
2022/10/30 07:05:38;;;;;;;26.45;12.57;;;;;;;15.55;60.04;100456.00;4472810;32;20149;-93
2022/10/30 07:08:04;;;;;;;29.05;13.00;;;;;;;15.49;60.03;100458.91;4485694;32;20103;-93
2022/10/30 07:10:29;;;;;;;25.62;12.45;;;;;;;15.59;60.03;100452.38;4472828;32;20467;-94
2022/10/30 07:12:55;;;;;;;28.48;12.68;;;;;;;15.81;60.04;100447.09;4472671;32;20220;-92
2022/10/30 07:15:21;;;;;;;26.80;13.77;;;;;;;15.70;60.03;100443.22;4472870;32;20128;-93
2022/10/30 07:18:01;;;;;;;28.92;13.35;;;;;;;15.61;60.03;100439.19;4472491;32;20132;-93
2022/10/30 07:20:28;;;;;;;24.90;12.85;;;;;;;15.29;60.02;100440.47;4472922;31;20100;-93
2022/10/30 07:22:53;;;;;;;26.00;12.88;;;;;;;15.36;60.02;100444.56;4472738;31;20096;-94
2022/10/30 07:25:19;;;;;;;28.60;13.65;;;;;;;15.70;60.03;100443.22;4472294;32;20453;-94
2022/10/30 07:27:45;;;;;;;27.40;12.75;;;;;;;15.91;60.04;100448.41;4473556;31;20096;-94
2022/10/30 07:30:11;;;;;;;27.05;12.32;;;;;;;16.00;60.05;100449.78;4474673;32;20076;-94
2022/10/30 07:32:37;;;;;;;26.85;13.02;;;;;;;15.96;60.05;100450.84;4474422;32;20112;-93
2022/10/30 07:35:02;;;;;;;25.50;12.55;;;;;;;15.60;60.03;100446.22;4480885;32;22612;-94
2022/10/30 07:37:28;;;;;;;26.12;12.98;;;;;;;15.77;60.04;100455.16;4475706;31;20096;-93
2022/10/30 07:39:54;;;;;;;24.80;12.48;;;;;;;15.81;60.04;100460.22;4474248;32;20104;-93
2022/10/30 07:42:20;;;;;;;30.37;14.38;;;;;;;15.65;60.03;100462.62;4473705;32;24823;-93
2022/10/30 07:44:45;;;;;;;29.02;13.13;;;;;;;15.81;60.05;100461.97;4474267;32;20143;-93
2022/10/30 07:47:11;;;;;;;24.27;12.52;;;;;;;15.78;60.05;100462.97;4486824;32;20112;-94
2022/10/30 07:49:36;;;;;;;24.52;13.77;;;;;;;15.99;60.05;100463.81;4473929;32;22886;-93
2022/10/30 07:52:02;;;;;;;24.87;12.15;;;;;;;16.14;60.06;100460.56;4474170;32;20179;-93
2022/10/30 07:54:27;;;;;;;27.25;12.55;;;;;;;16.17;60.06;100454.31;4474294;32;20138;-93
2022/10/30 07:56:53;;;;;;;27.75;12.48;;;;;;;16.21;60.06;100455.88;4473798;32;20160;-94
2022/10/30 07:59:18;;;;;;;25.85;13.35;;;;;;;16.00;60.05;100457.66;4473664;32;20299;-94
2022/10/30 08:01:43;;;;;;;24.05;12.63;;;;;;;16.15;60.05;100459.62;4474019;32;20136;-94
2022/10/30 08:04:10;;;;;;;25.70;13.82;;;;;;;16.21;60.06;100461.97;4474088;32;22061;-94
2022/10/30 08:06:35;;;;;;;25.88;12.70;;;;;;;16.29;60.06;100461.63;4487274;32;20407;-93
2022/10/30 08:09:01;;;;;;;23.02;12.57;;;;;;;16.17;60.06;100464.81;4474253;31;20435;-94
2022/10/30 08:11:26;;;;;;;27.48;12.60;;;;;;;16.18;60.07;100462.12;4473609;32;22985;-94
2022/10/30 08:13:51;;;;;;;29.08;13.73;;;;;;;16.33;60.07;100462.38;4474328;32;20146;-94
2022/10/30 08:16:17;;;;;;;25.15;12.68;;;;;;;16.31;60.06;100464.19;4474061;32;20469;-93
2022/10/30 08:18:43;;;;;;;26.77;13.13;;;;;;;16.44;60.07;100462.75;4474221;32;20177;-94
2022/10/30 08:21:08;;;;;;;29.48;14.40;;;;;;;16.56;60.08;100459.53;4474165;31;20093;-94
2022/10/30 08:23:34;;;;;;;30.42;14.27;;;;;;;16.59;60.08;100464.69;4474045;32;20131;-94
2022/10/30 08:25:59;;;;;;;24.52;12.75;;;;;;;16.70;60.09;100469.47;4474179;31;20444;-94
2022/10/30 08:28:25;;;;;;;25.60;12.70;;;;;;;16.82;60.09;100461.91;4473828;32;21279;-94
2022/10/30 08:30:50;;;;;;;26.70;12.57;;;;;;;16.79;60.10;100467.25;4474096;32;20453;-94
2022/10/30 08:33:15;;;;;;;27.55;13.10;;;;;;;16.75;60.09;100465.72;4473531;32;27263;-94
2022/10/30 08:35:51;;;;;;;25.83;12.52;;;;;;;16.66;60.09;100462.62;4474039;32;20135;-93
2022/10/30 08:38:17;;;;;;;22.75;11.70;;;;;;;16.66;60.09;100462.62;4473942;31;20091;-94
2022/10/30 08:40:42;;;;;;;26.42;13.00;;;;;;;16.47;60.08;100468.72;4474116;32;20453;-94
2022/10/30 08:43:08;;;;;;;23.60;12.55;;;;;;;16.58;60.08;100468.25;4473983;32;20135;-94
2022/10/30 08:45:33;;;;;;;22.87;12.68;;;;;;;16.65;60.09;100468.81;4473573;31;20111;-94
2022/10/30 08:48:00;;;;;;;27.08;12.40;;;;;;;16.70;60.09;100465.06;4473681;32;20161;-94
2022/10/30 08:50:25;;;;;;;28.67;13.73;;;;;;;16.58;60.08;100460.34;4473962;32;20164;-94
2022/10/30 08:52:51;;;;;;;26.30;12.90;;;;;;;16.69;60.09;100462.50;4473777;31;20105;-94
2022/10/30 08:55:16;;;;;;;22.77;12.18;;;;;;;16.56;60.08;100464.81;4473702;32;20128;-94
2022/10/30 08:57:41;;;;;;;22.83;12.55;;;;;;;16.69;60.08;100463.38;4492209;32;20088;-93
2022/10/30 09:00:07;;;;;;;24.60;12.18;;;;;;;16.57;60.08;100461.28;4477710;32;21026;-94
2022/10/30 09:02:34;;;;;;;37.50;15.20;;;;;;;16.67;60.08;100464.37;4473707;32;20384;-94
2022/10/30 09:04:59;;;;;;;27.70;14.55;;;;;;;16.75;60.09;100454.34;4473884;32;20092;-93
2022/10/30 09:07:24;;;;;;;31.12;13.90;;;;;;;16.95;60.11;100454.25;4486554;32;20136;-93
2022/10/30 09:09:50;;;;;;;27.30;12.13;;;;;;;16.99;60.10;100457.59;4472952;32;22871;-94
2022/10/30 09:12:15;;;;;;;28.98;14.18;;;;;;;16.97;60.10;100457.69;4473187;32;23781;-94
2022/10/30 09:14:41;;;;;;;26.17;12.80;;;;;;;17.06;60.11;100454.63;4460663;32;20115;-93
2022/10/30 09:17:06;;;;;;;26.50;12.48;;;;;;;17.19;60.11;100458.38;4473322;32;20093;-94
2022/10/30 09:19:31;;;;;;;29.95;12.73;;;;;;;17.28;60.12;100456.25;4473460;32;20194;-94
2022/10/30 09:21:57;;;;;;;26.75;12.63;;;;;;;17.42;60.13;100459.88;4473558;32;22036;-94
2022/10/30 09:24:22;;;;;;;26.00;12.93;;;;;;;17.46;60.13;100463.22;4460269;32;24233;-93
2022/10/30 09:26:48;;;;;;;23.60;12.27;;;;;;;17.13;60.11;100457.81;4472719;32;28774;-93
2022/10/30 09:29:13;;;;;;;35.95;14.73;;;;;;;16.92;60.10;100456.19;4473547;32;20116;-93
2022/10/30 09:31:38;;;;;;;28.65;13.05;;;;;;;17.17;60.12;100448.84;4473127;32;20136;-94
2022/10/30 09:34:04;;;;;;;27.30;13.40;;;;;;;16.99;60.10;100455.81;4472954;32;20405;-93
2022/10/30 09:36:31;;;;;;;23.23;12.15;;;;;;;17.19;60.11;100453.09;4473048;32;24214;-94
2022/10/30 09:38:56;;;;;;;24.77;12.00;;;;;;;17.35;60.13;100447.09;4473762;31;20131;-93
2022/10/30 09:41:35;;;;;;;27.73;12.18;;;;;;;17.34;60.12;100446.25;4473445;32;20104;-93
2022/10/30 09:44:39;;;;;;;30.25;11.95;;;;;;;17.38;60.12;100453.06;4486416;31;20745;-93
2022/10/30 09:47:26;;;;;;;26.35;12.63;;;;;;;17.56;60.14;100447.84;4479802;32;20109;-94
2022/10/30 09:49:57;;;;;;;20.33;11.10;;;;;;;17.45;60.12;100443.09;4485868;32;20177;-93
2022/10/30 09:52:40;;;;;;;30.70;14.73;;;;;;;17.45;60.12;100443.94;4486464;32;20108;-93
2022/10/30 09:55:30;;;;;;;67.12;26.83;;;;;;;17.87;60.15;100429.59;4487080;32;20079;-93
2022/10/30 09:58:16;;;;;;;28.25;13.05;;;;;;;17.92;60.15;100429.34;4487604;32;20093;-93
2022/10/30 10:00:47;;;;;;;23.40;10.75;;;;;;;17.88;60.16;100425.16;4487639;32;20458;-92
2022/10/30 10:03:53;;;;;;;23.02;11.20;;;;;;;17.85;60.16;100428.81;4474795;31;20124;-93
2022/10/30 10:06:19;;;;;;;21.87;11.65;;;;;;;17.84;60.15;100427.13;4485423;32;20084;-92
2022/10/30 10:08:47;;;;;;;22.02;11.40;;;;;;;17.84;60.14;100435.00;4473316;31;20456;-94
2022/10/30 10:11:15;;;;;;;27.20;11.80;;;;;;;17.87;60.16;100426.94;4473494;32;20126;-94
2022/10/30 10:13:48;;;;;;;21.30;11.73;;;;;;;18.05;60.16;100426.00;4473368;31;20179;-93
2022/10/30 10:16:22;;;;;;;20.98;11.02;;;;;;;18.03;60.16;100427.03;4486760;31;20159;-94
2022/10/30 10:18:48;;;;;;;22.45;12.20;;;;;;;18.25;60.17;100429.38;4473536;32;20100;-93
2022/10/30 10:21:25;;;;;;;21.92;11.85;;;;;;;18.16;60.17;100427.22;4490656;32;20131;-93
2022/10/30 10:23:53;;;;;;;23.33;13.02;;;;;;;18.00;60.15;100424.56;4477420;32;20138;-93
2022/10/30 10:26:31;;;;;;;22.87;11.73;;;;;;;18.14;60.17;100421.19;4473022;32;20148;-94
2022/10/30 10:29:33;;;;;;;21.87;11.25;;;;;;;18.32;60.18;100409.66;4486302;32;20092;-94
2022/10/30 10:32:05;;;;;;;19.67;11.25;;;;;;;18.17;60.17;100410.47;4474803;32;20104;-93
2022/10/30 10:34:34;;;;;;;22.62;11.68;;;;;;;18.04;60.16;100423.47;4486037;31;20112;-93
2022/10/30 10:37:35;;;;;;;25.27;12.35;;;;;;;18.16;60.17;100408.78;4485899;32;20143;-94
2022/10/30 10:40:28;;;;;;;22.52;10.73;;;;;;;18.32;60.18;100409.66;4461081;32;20132;-93
2022/10/30 10:43:12;;;;;;;25.73;11.43;;;;;;;18.58;60.19;100410.91;4486020;32;20104;-93
2022/10/30 10:46:09;;;;;;;22.80;11.38;;;;;;;18.45;60.18;100407.22;4485781;31;20105;-94
2022/10/30 10:48:38;;;;;;;21.23;11.52;;;;;;;18.70;60.20;100405.00;4487133;31;20179;-94
2022/10/30 10:51:09;;;;;;;22.77;10.90;;;;;;;18.58;60.19;100406.47;4485937;32;20457;-94
2022/10/30 10:53:50;;;;;;;21.73;11.32;;;;;;;18.46;60.17;100407.16;4473139;32;20226;-95
2022/10/30 10:56:16;;;;;;;19.55;10.75;;;;;;;18.49;60.18;100396.44;4485646;32;20113;-93
2022/10/30 10:58:48;;;;;;;27.05;11.88;;;;;;;18.44;60.18;100403.72;4472676;32;20173;-94
2022/10/30 11:01:16;;;;;;;21.02;11.68;;;;;;;18.25;60.17;100409.16;4484860;31;20480;-93
2022/10/30 11:03:49;;;;;;;23.35;11.88;;;;;;;18.22;60.17;100411.97;4472587;32;20127;-93
2022/10/30 11:06:28;;;;;;;25.48;13.05;;;;;;;18.30;60.17;100401.84;4485342;32;20165;-93
2022/10/30 11:09:13;;;;;;;23.87;12.98;;;;;;;18.33;60.17;100403.47;4472795;32;20096;-93
2022/10/30 11:11:38;;;;;;;23.65;12.98;;;;;;;18.58;60.19;100393.28;4473649;31;20721;-93
2022/10/30 11:14:11;;;;;;;23.15;11.65;;;;;;;18.32;60.18;100393.84;4471568;32;25956;-93
2022/10/30 11:16:51;;;;;;;24.58;11.25;;;;;;;18.27;60.17;100388.00;4472384;32;20108;-92